Time;durP1;ratioP1;P1;durP2;ratioP2;P2;SDS_P1;SDS_P2;PMS_P1;PMS_P2;Temp;Humidity;BMP_temperature;BMP_pressure;BME280_temperature;BME280_humidity;BME280_pressure;Samples;Min_cycle;Max_cycle;Signal;HPM_P1;HPM_P2
2023/01/15 00:01:35;;;;;;;6.10;0.30;;;7.50;99.90;;;;;;5098801;28;20051;-77
2023/01/15 00:04:02;;;;;;;5.40;0.20;;;7.50;99.90;;;;;;5098060;28;20023;-78
2023/01/15 00:06:29;;;;;;;4.97;0.30;;;7.40;99.90;;;;;;5079650;28;20024;-78
2023/01/15 00:08:55;;;;;;;4.60;0.20;;;7.40;99.90;;;;;;5070428;28;20020;-77
2023/01/15 00:11:22;;;;;;;4.60;0.60;;;7.30;99.90;;;;;;5078470;28;20400;-78
2023/01/15 00:13:48;;;;;;;3.63;0.20;;;7.30;99.90;;;;;;5080375;28;20027;-77
2023/01/15 00:16:16;;;;;;;5.25;0.20;;;7.30;99.90;;;;;;5081076;28;20039;-78
2023/01/15 00:18:42;;;;;;;4.28;0.28;;;7.30;99.90;;;;;;5064532;28;20046;-77
2023/01/15 00:21:11;;;;;;;2.10;0.10;;;7.30;99.90;;;;;;5078706;28;20028;-79
2023/01/15 00:29:13;;;;;;;4.22;0.30;;;7.30;99.90;;;;;;5086194;28;20461;-78
2023/01/15 00:31:39;;;;;;;2.13;0.10;;;7.30;99.90;;;;;;5072106;28;20028;-78
2023/01/15 00:34:05;;;;;;;4.03;0.20;;;7.30;99.90;;;;;;5096329;28;20023;-78
2023/01/15 00:36:32;;;;;;;2.80;0.20;;;7.20;99.90;;;;;;5076900;28;20032;-77
2023/01/15 00:38:58;;;;;;;7.20;0.30;;;7.20;99.90;;;;;;5062579;28;20039;-77
2023/01/15 00:41:23;;;;;;;9.82;0.50;;;7.20;99.90;;;;;;5082175;28;20317;-78
2023/01/15 00:43:49;;;;;;;5.90;0.35;;;7.20;99.90;;;;;;5088519;28;20062;-78
2023/01/15 00:46:15;;;;;;;6.78;0.30;;;7.20;99.90;;;;;;5086941;28;20035;-77
2023/01/15 00:48:40;;;;;;;4.60;0.30;;;7.20;99.90;;;;;;5080173;28;20035;-78
2023/01/15 00:51:06;;;;;;;4.78;0.20;;;7.20;99.90;;;;;;5081222;28;20032;-78
2023/01/15 00:53:32;;;;;;;2.50;0.20;;;7.20;99.90;;;;;;5095674;28;20030;-78
2023/01/15 00:55:58;;;;;;;2.22;0.35;;;7.10;99.90;;;;;;5078832;28;20027;-78
2023/01/15 00:58:24;;;;;;;5.38;0.22;;;7.10;99.90;;;;;;5096506;28;20036;-77
2023/01/15 01:00:57;;;;;;;3.35;0.10;;;7.20;99.90;;;;;;5088189;28;20023;-78
2023/01/15 01:03:23;;;;;;;2.75;0.20;;;7.20;99.90;;;;;;5070401;28;20020;-77
2023/01/15 01:05:49;;;;;;;3.00;0.20;;;7.10;99.90;;;;;;5079900;28;20049;-78
2023/01/15 01:08:15;;;;;;;3.05;0.20;;;7.10;99.90;;;;;;5078184;28;20119;-78
2023/01/15 01:10:41;;;;;;;4.03;0.20;;;7.10;99.90;;;;;;5076415;28;20028;-78
2023/01/15 01:13:08;;;;;;;2.85;0.10;;;7.10;99.90;;;;;;5097787;28;20639;-77
2023/01/15 01:15:34;;;;;;;2.67;0.20;;;7.10;99.90;;;;;;5095921;28;20107;-78
2023/01/15 01:18:01;;;;;;;1.83;0.20;;;7.10;99.90;;;;;;5081506;28;20040;-77
2023/01/15 01:20:27;;;;;;;2.17;0.20;;;7.10;99.90;;;;;;5082714;28;20092;-77
2023/01/15 01:22:52;;;;;;;6.07;0.28;;;7.00;99.90;;;;;;5071074;28;20464;-78
2023/01/15 01:25:19;;;;;;;5.93;0.57;;;7.20;99.90;;;;;;5081470;28;20420;-78
2023/01/15 01:27:45;;;;;;;3.25;0.20;;;7.10;99.90;;;;;;5084437;28;20032;-77
2023/01/15 01:30:11;;;;;;;2.60;0.20;;;7.10;99.90;;;;;;5086107;28;20043;-78
2023/01/15 01:32:42;;;;;;;2.92;0.22;;;7.10;99.90;;;;;;5082648;28;20055;-77
2023/01/15 01:35:08;;;;;;;2.63;0.20;;;7.00;99.90;;;;;;5087667;28;20027;-78
2023/01/15 01:37:34;;;;;;;3.17;0.20;;;7.00;99.90;;;;;;5084795;28;20031;-78
2023/01/15 01:39:59;;;;;;;6.88;0.20;;;7.00;99.90;;;;;;5082354;28;20036;-78
2023/01/15 01:42:25;;;;;;;3.00;0.30;;;6.90;99.90;;;;;;5087180;28;20032;-78
2023/01/15 01:44:50;;;;;;;5.35;0.40;;;7.00;99.90;;;;;;5080745;28;20031;-78
2023/01/15 01:47:21;;;;;;;2.78;0.82;;;6.90;99.90;;;;;;5099270;28;20028;-78
2023/01/15 01:49:51;;;;;;;4.75;0.28;;;6.90;99.90;;;;;;5090226;28;20048;-78
2023/01/15 01:52:23;;;;;;;2.60;0.20;;;6.90;99.90;;;;;;5087372;28;20070;-78
2023/01/15 01:54:50;;;;;;;3.70;0.30;;;6.90;99.90;;;;;;5089421;28;20035;-79
2023/01/15 01:57:17;;;;;;;5.22;0.30;;;6.90;99.90;;;;;;5087241;28;20027;-78
2023/01/15 01:59:45;;;;;;;2.10;0.30;;;6.80;99.90;;;;;;5082487;28;20134;-78
2023/01/15 02:02:12;;;;;;;4.97;0.30;;;6.80;99.90;;;;;;5083608;28;20042;-78
2023/01/15 02:04:38;;;;;;;2.60;0.25;;;6.90;99.90;;;;;;5083355;28;20050;-77
2023/01/15 02:07:05;;;;;;;3.83;0.30;;;6.80;99.90;;;;;;5084913;28;20476;-78
2023/01/15 02:09:31;;;;;;;8.85;0.40;;;6.80;99.90;;;;;;5097740;28;20111;-78
2023/01/15 02:12:12;;;;;;;7.90;0.63;;;6.80;99.90;;;;;;5082134;28;20046;-78
2023/01/15 02:14:49;;;;;;;6.88;0.20;;;6.90;99.90;;;;;;5071184;28;20050;-79
2023/01/15 02:17:21;;;;;;;2.53;0.20;;;6.80;99.90;;;;;;5070621;28;20023;-79
2023/01/15 02:20:14;;;;;;;2.72;0.20;;;6.80;99.90;;;;;;5068625;28;20123;-78
2023/01/15 02:22:40;;;;;;;6.25;0.30;;;6.80;99.90;;;;;;5092024;28;20028;-78
2023/01/15 02:25:17;;;;;;;2.55;0.20;;;6.80;99.90;;;;;;5089076;28;20085;-78
2023/01/15 02:27:51;;;;;;;7.00;0.30;;;6.70;99.90;;;;;;5097015;28;20122;-78
2023/01/15 02:30:28;;;;;;;3.35;0.20;;;6.70;99.90;;;;;;5097742;28;20020;-78
2023/01/15 02:33:05;;;;;;;6.72;0.28;;;6.70;99.90;;;;;;5068961;28;20038;-78
2023/01/15 02:35:38;;;;;;;5.68;0.40;;;6.70;99.90;;;;;;5069607;28;20468;-78
2023/01/15 02:38:10;;;;;;;6.47;0.30;;;6.60;99.90;;;;;;5077862;28;20020;-79
2023/01/15 02:40:37;;;;;;;4.53;0.20;;;6.60;99.90;;;;;;5083722;28;20062;-79
2023/01/15 02:43:06;;;;;;;3.70;0.30;;;6.50;99.90;;;;;;5097894;28;20473;-78
2023/01/15 02:45:35;;;;;;;3.25;0.20;;;6.50;99.90;;;;;;5082465;28;20028;-78
2023/01/15 02:48:13;;;;;;;3.03;0.20;;;6.50;99.90;;;;;;5079187;28;20020;-78
2023/01/15 02:50:48;;;;;;;3.17;0.20;;;6.50;99.90;;;;;;5069165;28;20051;-78
2023/01/15 02:53:22;;;;;;;3.50;0.20;;;6.40;99.90;;;;;;5079818;28;20028;-78
2023/01/15 02:55:50;;;;;;;3.97;0.20;;;6.40;99.90;;;;;;5077906;28;20488;-78
2023/01/15 02:58:23;;;;;;;3.78;0.20;;;6.40;99.90;;;;;;5095557;28;20044;-78
2023/01/15 03:00:52;;;;;;;5.80;0.40;;;6.30;99.90;;;;;;5087035;28;20067;-80
2023/01/15 03:03:30;;;;;;;2.92;0.40;;;6.30;99.90;;;;;;5076486;28;20028;-79
2023/01/15 03:06:20;;;;;;;4.30;0.30;;;6.40;99.90;;;;;;5080790;28;20023;-78
2023/01/15 03:08:46;;;;;;;;;;;6.40;99.90;;;;;;5078284;28;20024;-78
2023/01/15 03:11:20;;;;;;;5.97;0.25;;;6.30;99.90;;;;;;5082634;28;20306;-79
2023/01/15 03:14:19;;;;;;;5.63;0.40;;;6.40;99.90;;;;;;5086844;28;20024;-78
2023/01/15 03:16:52;;;;;;;5.60;0.32;;;6.30;99.90;;;;;;5064982;28;20073;-78
2023/01/15 03:19:40;;;;;;;3.33;0.22;;;6.20;99.90;;;;;;5075042;28;20122;-79
2023/01/15 03:22:11;;;;;;;;;;;6.20;99.90;;;;;;5066586;28;20047;-78
2023/01/15 03:24:50;;;;;;;3.70;0.20;;;6.20;99.90;;;;;;5094918;28;19916;-79
2023/01/15 03:27:18;;;;;;;4.05;0.20;;;6.30;99.90;;;;;;5086247;28;20034;-79
2023/01/15 03:29:58;;;;;;;3.03;0.30;;;6.30;99.90;;;;;;5078720;28;20027;-78
2023/01/15 03:32:24;;;;;;;4.63;0.30;;;6.40;99.90;;;;;;5065436;28;20020;-79
2023/01/15 03:34:52;;;;;;;4.22;0.22;;;6.40;99.90;;;;;;5072280;28;20035;-77
2023/01/15 03:37:22;;;;;;;3.85;0.30;;;6.30;99.90;;;;;;5066648;28;20119;-79
2023/01/15 03:39:49;;;;;;;2.25;0.20;;;6.30;99.90;;;;;;5092527;28;20461;-79
2023/01/15 03:42:27;;;;;;;1.70;0.20;;;6.20;99.90;;;;;;5079612;28;20031;-79
2023/01/15 03:45:07;;;;;;;4.13;0.28;;;6.30;99.90;;;;;;5075051;28;20026;-78
2023/01/15 03:47:44;;;;;;;3.28;0.20;;;6.30;99.90;;;;;;5061264;28;20090;-79
2023/01/15 03:50:28;;;;;;;4.15;0.20;;;6.20;99.90;;;;;;5094895;28;20451;-79
2023/01/15 03:53:25;;;;;;;3.45;0.20;;;6.20;99.90;;;;;;5079454;28;20763;-79
2023/01/15 03:56:02;;;;;;;4.85;0.20;;;6.20;99.90;;;;;;5082702;28;20043;-78
2023/01/15 03:58:46;;;;;;;3.40;0.40;;;6.20;99.90;;;;;;5073070;28;21998;-78
2023/01/15 04:01:18;;;;;;;6.13;0.40;;;6.20;99.90;;;;;;5077402;28;20096;-78
2023/01/15 04:03:47;;;;;;;1.52;0.20;;;6.10;99.90;;;;;;5075830;28;20024;-81
2023/01/15 04:06:13;;;;;;;5.45;0.45;;;6.20;99.90;;;;;;5093691;28;20025;-79
2023/01/15 04:08:42;;;;;;;4.15;0.22;;;6.30;99.90;;;;;;5092238;28;20032;-80
2023/01/15 04:11:08;;;;;;;2.50;0.20;;;6.20;99.90;;;;;;5072984;28;20477;-79
2023/01/15 04:13:41;;;;;;;5.05;0.28;;;6.20;99.90;;;;;;5089037;28;20030;-79
2023/01/15 04:16:26;;;;;;;4.20;0.38;;;6.20;99.90;;;;;;5085606;28;20157;-79
2023/01/15 04:18:52;;;;;;;4.82;0.30;;;6.20;99.90;;;;;;5074430;28;20040;-78
2023/01/15 04:21:18;;;;;;;5.90;0.30;;;6.10;99.90;;;;;;5067703;28;20032;-79
2023/01/15 04:23:44;;;;;;;2.67;0.20;;;6.10;99.90;;;;;;5077845;28;20029;-79
2023/01/15 04:26:11;;;;;;;4.57;0.32;;;6.10;99.90;;;;;;5075175;28;20028;-79
2023/01/15 04:28:36;;;;;;;5.55;0.35;;;6.10;99.90;;;;;;5092673;28;20413;-79
2023/01/15 04:31:02;;;;;;;6.10;0.20;;;6.20;99.90;;;;;;5060364;28;20036;-79
2023/01/15 04:33:28;;;;;;;4.57;0.20;;;6.10;99.90;;;;;;5080515;28;20028;-79
2023/01/15 04:35:53;;;;;;;2.72;0.15;;;6.00;99.90;;;;;;5078972;28;20028;-78
2023/01/15 04:38:19;;;;;;;6.28;0.30;;;6.00;99.90;;;;;;5062486;28;20024;-78
2023/01/15 04:46:13;;;;;;;4.43;0.20;;;6.00;99.90;;;;;;5076371;28;20039;-78
2023/01/15 04:48:39;;;;;;;3.38;0.20;;;5.90;99.90;;;;;;5078515;28;20028;-79
2023/01/15 04:51:06;;;;;;;4.20;0.20;;;5.90;99.90;;;;;;5076249;28;20050;-80
2023/01/15 04:53:32;;;;;;;4.15;0.30;;;6.00;99.90;;;;;;5094121;28;20558;-79
2023/01/15 04:56:03;;;;;;;3.90;0.30;;;5.90;99.90;;;;;;5083802;28;20051;-78
2023/01/15 04:58:29;;;;;;;7.15;0.30;;;5.80;99.90;;;;;;5067313;28;20036;-78
2023/01/15 05:00:56;;;;;;;6.65;0.30;;;5.90;99.90;;;;;;5093559;28;20060;-78
2023/01/15 05:03:22;;;;;;;1.98;0.20;;;5.90;99.90;;;;;;5071794;28;20024;-78
2023/01/15 05:05:49;;;;;;;4.03;0.20;;;5.80;99.90;;;;;;5083103;28;20024;-78
2023/01/15 05:08:15;;;;;;;4.20;0.93;;;5.80;99.90;;;;;;5079447;28;20108;-79
2023/01/15 05:10:40;;;;;;;8.20;0.30;;;5.70;99.90;;;;;;5084013;28;20154;-79
2023/01/15 05:13:06;;;;;;;4.13;0.20;;;5.80;99.90;;;;;;5086609;28;20021;-79
2023/01/15 05:15:32;;;;;;;4.35;0.32;;;5.80;99.90;;;;;;5082028;28;20558;-79
2023/01/15 05:17:57;;;;;;;5.78;0.30;;;5.80;99.90;;;;;;5083522;28;20486;-79
2023/01/15 05:20:23;;;;;;;4.90;0.30;;;5.80;99.90;;;;;;5063161;28;20048;-78
2023/01/15 05:22:49;;;;;;;5.82;0.40;;;5.80;99.90;;;;;;5071655;28;20024;-78
2023/01/15 05:25:14;;;;;;;4.80;0.30;;;5.80;99.90;;;;;;5089697;28;20058;-79
2023/01/15 05:27:41;;;;;;;5.20;0.30;;;5.80;99.90;;;;;;5087987;28;21989;-80
2023/01/15 05:30:08;;;;;;;6.90;0.60;;;5.80;99.90;;;;;;5078741;28;20043;-78
2023/01/15 05:32:33;;;;;;;5.85;0.32;;;5.90;99.90;;;;;;5064411;28;20028;-78
2023/01/15 05:34:59;;;;;;;6.38;0.20;;;5.90;99.90;;;;;;5065915;28;20036;-77
2023/01/15 05:37:25;;;;;;;4.75;0.52;;;5.80;99.90;;;;;;5076709;28;20032;-78
2023/01/15 05:39:50;;;;;;;4.85;0.30;;;5.90;99.90;;;;;;5098594;28;20064;-78
2023/01/15 05:42:16;;;;;;;4.75;0.30;;;5.90;99.90;;;;;;5071886;28;20020;-81
2023/01/15 05:44:42;;;;;;;4.70;0.38;;;5.90;99.90;;;;;;5067181;28;20024;-79
2023/01/15 05:47:09;;;;;;;7.95;0.30;;;5.90;99.90;;;;;;5080736;28;20028;-79
2023/01/15 05:49:35;;;;;;;5.53;0.30;;;5.90;99.90;;;;;;5096250;28;20063;-79
2023/01/15 05:52:01;;;;;;;9.30;0.30;;;5.80;99.90;;;;;;5095422;28;20036;-79
2023/01/15 05:54:29;;;;;;;7.20;0.50;;;5.80;99.90;;;;;;5078748;28;20027;-78
2023/01/15 05:56:55;;;;;;;4.18;0.82;;;5.70;99.90;;;;;;5065923;28;20108;-78
2023/01/15 05:59:24;;;;;;;4.47;0.40;;;5.80;99.90;;;;;;5067486;28;20043;-79
2023/01/15 06:01:50;;;;;;;3.78;0.30;;;5.70;99.90;;;;;;5088496;28;20024;-80
2023/01/15 06:04:19;;;;;;;8.30;0.50;;;5.70;99.90;;;;;;5088739;28;20032;-79
2023/01/15 06:06:46;;;;;;;2.75;0.20;;;5.70;99.90;;;;;;5081927;28;20507;-79
2023/01/15 06:09:12;;;;;;;5.00;0.30;;;5.70;99.90;;;;;;5069367;28;20071;-78
2023/01/15 06:11:39;;;;;;;7.00;0.40;;;5.80;99.90;;;;;;5097273;28;20446;-79
2023/01/15 06:14:05;;;;;;;2.95;0.20;;;5.80;99.90;;;;;;5080454;28;20039;-79
2023/01/15 06:16:31;;;;;;;6.18;0.35;;;5.80;99.90;;;;;;5078339;28;20468;-79
2023/01/15 06:19:03;;;;;;;3.72;0.40;;;5.70;99.90;;;;;;5067735;28;20039;-79
2023/01/15 06:21:29;;;;;;;3.03;0.30;;;5.70;99.90;;;;;;5082610;28;20138;-79
2023/01/15 06:23:55;;;;;;;6.47;0.30;;;5.60;99.90;;;;;;5059411;28;20032;-78
2023/01/15 06:26:21;;;;;;;6.78;0.30;;;5.70;99.90;;;;;;5077765;28;20040;-79
2023/01/15 06:28:47;;;;;;;7.13;0.30;;;5.80;99.90;;;;;;5091377;28;20025;-80
2023/01/15 06:31:16;;;;;;;7.85;0.95;;;5.80;99.90;;;;;;5077666;28;20499;-79
2023/01/15 06:33:43;;;;;;;3.63;0.20;;;5.70;99.90;;;;;;5075678;28;20107;-80
2023/01/15 06:36:14;;;;;;;5.82;0.35;;;5.60;99.90;;;;;;5071504;28;20476;-79
2023/01/15 06:38:41;;;;;;;2.80;0.20;;;5.70;99.90;;;;;;5070014;28;20043;-80
2023/01/15 06:49:30;;;;;;;7.68;0.50;;;5.60;99.90;;;;;;5089738;28;20040;-79
2023/01/15 06:51:55;;;;;;;4.78;0.20;;;5.70;99.90;;;;;;5087399;28;20027;-79
2023/01/15 06:54:21;;;;;;;4.43;0.40;;;5.60;99.90;;;;;;5080556;28;20024;-80
2023/01/15 06:56:47;;;;;;;1.67;0.17;;;5.50;99.90;;;;;;5072271;28;20031;-79
2023/01/15 06:59:12;;;;;;;4.00;0.30;;;5.50;99.90;;;;;;5090002;28;20404;-79
2023/01/15 07:01:38;;;;;;;3.00;0.20;;;5.40;99.90;;;;;;5082990;28;20055;-79
2023/01/15 07:04:04;;;;;;;5.15;0.40;;;5.40;99.90;;;;;;5082737;28;20031;-80
2023/01/15 07:06:30;;;;;;;5.38;0.20;;;5.40;99.90;;;;;;5084174;28;20032;-80
2023/01/15 07:08:56;;;;;;;8.98;0.70;;;5.40;99.90;;;;;;5084096;28;20471;-80
2023/01/15 07:11:22;;;;;;;3.88;0.20;;;5.40;99.90;;;;;;5084455;28;20024;-80
2023/01/15 07:13:48;;;;;;;6.75;0.20;;;5.30;99.90;;;;;;5067842;28;20028;-80
2023/01/15 07:16:26;;;;;;;10.55;0.30;;;5.40;99.90;;;;;;5088901;28;20599;-79
2023/01/15 07:18:54;;;;;;;4.30;0.40;;;5.40;99.90;;;;;;5097685;28;20024;-81
2023/01/15 07:21:20;;;;;;;7.00;0.70;;;5.30;99.90;;;;;;5088896;28;20032;-79
2023/01/15 07:23:46;;;;;;;5.78;0.30;;;5.40;99.90;;;;;;5064841;28;20016;-80
2023/01/15 07:26:11;;;;;;;5.53;0.50;;;5.40;99.90;;;;;;5088453;28;20034;-79
2023/01/15 07:28:37;;;;;;;6.60;0.60;;;5.40;99.90;;;;;;5073975;28;20118;-80
2023/01/15 07:31:03;;;;;;;4.07;0.60;;;5.30;99.90;;;;;;5085858;28;20026;-78
2023/01/15 07:33:28;;;;;;;5.80;0.30;;;5.30;99.90;;;;;;5095384;28;20084;-79
2023/01/15 07:35:55;;;;;;;7.50;0.30;;;5.40;99.90;;;;;;5068569;28;20024;-78
2023/01/15 07:38:22;;;;;;;5.72;0.60;;;5.30;99.90;;;;;;5098595;28;20031;-79
2023/01/15 07:49:44;;;;;;;4.80;0.20;;;5.40;99.90;;;;;;5078556;28;20050;-78
2023/01/15 07:51:56;;;;;;;6.05;0.50;;;5.40;99.90;;;;;;5073827;28;20032;-80
2023/01/15 07:54:21;;;;;;;5.60;0.20;;;5.20;99.90;;;;;;5075884;28;20081;-80
2023/01/15 07:56:48;;;;;;;4.75;0.55;;;5.10;99.90;;;;;;5075430;28;20404;-81
2023/01/15 07:59:13;;;;;;;5.85;0.30;;;5.20;99.90;;;;;;5068851;28;20036;-80
2023/01/15 08:01:39;;;;;;;3.85;0.20;;;5.20;99.90;;;;;;5077175;28;20035;-80
2023/01/15 08:04:05;;;;;;;6.82;0.20;;;5.30;99.90;;;;;;5084033;28;20389;-80
2023/01/15 08:06:30;;;;;;;6.53;0.30;;;5.30;99.90;;;;;;5063040;28;20060;-80
2023/01/15 08:08:56;;;;;;;9.68;0.40;;;5.40;99.90;;;;;;5078069;28;20028;-80
2023/01/15 08:16:51;;;;;;;3.33;0.20;;;5.30;99.90;;;;;;5079661;28;20024;-80
2023/01/15 08:19:17;;;;;;;5.55;0.20;;;5.20;99.90;;;;;;5080786;28;20040;-80
2023/01/15 08:21:43;;;;;;;3.63;0.20;;;5.20;99.90;;;;;;5085113;28;20033;-80
2023/01/15 08:24:08;;;;;;;3.88;0.20;;;5.30;99.90;;;;;;5078171;28;20093;-79
2023/01/15 08:26:34;;;;;;;3.15;0.20;;;5.20;99.90;;;;;;5094251;28;20112;-80
2023/01/15 08:29:00;;;;;;;3.47;0.20;;;5.30;99.90;;;;;;5078247;28;20380;-80
2023/01/15 08:31:25;;;;;;;6.40;0.30;;;5.20;99.90;;;;;;5061501;28;20052;-80
2023/01/15 08:33:51;;;;;;;3.75;0.20;;;5.30;99.90;;;;;;5077562;28;20032;-78
2023/01/15 08:36:17;;;;;;;9.73;0.60;;;5.30;99.90;;;;;;5064082;28;20912;-79
2023/01/15 08:38:43;;;;;;;7.95;0.30;;;5.40;99.90;;;;;;5077972;28;20040;-79
2023/01/15 08:41:09;;;;;;;7.45;0.40;;;5.40;99.90;;;;;;5076017;28;20036;-79
2023/01/15 08:43:35;;;;;;;6.35;0.70;;;5.40;99.90;;;;;;5076518;28;20032;-80
2023/01/15 08:46:02;;;;;;;6.45;0.30;;;5.40;99.90;;;;;;5066989;28;20032;-79
2023/01/15 08:48:30;;;;;;;5.75;0.30;;;5.50;99.90;;;;;;5076838;28;20075;-81
2023/01/15 08:50:56;;;;;;;5.53;0.20;;;5.50;99.90;;;;;;5077491;28;20052;-80
2023/01/15 08:53:23;;;;;;;3.78;0.20;;;5.50;99.90;;;;;;5082662;28;20036;-79
2023/01/15 08:55:49;;;;;;;5.95;0.20;;;5.60;99.90;;;;;;5079647;28;20036;-79
2023/01/15 08:58:16;;;;;;;4.05;0.20;;;5.60;99.90;;;;;;5080670;28;20141;-81
2023/01/15 09:00:42;;;;;;;4.32;0.20;;;5.70;99.90;;;;;;5075653;28;20495;-80
2023/01/15 09:03:08;;;;;;;3.72;0.20;;;5.70;99.90;;;;;;5073142;28;20155;-79
2023/01/15 09:05:36;;;;;;;6.70;0.30;;;5.80;99.90;;;;;;5078060;28;20107;-79
2023/01/15 09:08:02;;;;;;;6.30;0.28;;;5.80;99.90;;;;;;5075758;28;20029;-80
2023/01/15 09:10:28;;;;;;;4.55;0.20;;;5.80;99.90;;;;;;5065111;28;20461;-80
2023/01/15 09:12:54;;;;;;;9.13;0.30;;;5.80;99.90;;;;;;5082647;28;20032;-80
2023/01/15 09:15:19;;;;;;;2.42;0.17;;;5.90;99.90;;;;;;5075161;28;20028;-79
2023/01/15 09:17:45;;;;;;;6.65;0.40;;;5.90;99.90;;;;;;5083777;28;20024;-78
2023/01/15 09:20:13;;;;;;;7.57;0.20;;;5.90;99.90;;;;;;5061462;28;20040;-79
2023/01/15 09:22:38;;;;;;;7.85;0.30;;;6.00;99.90;;;;;;5074140;28;20028;-79
2023/01/15 09:25:05;;;;;;;3.88;0.20;;;6.10;99.90;;;;;;5061646;28;20039;-78
2023/01/15 09:27:32;;;;;;;2.55;0.20;;;6.10;99.90;;;;;;5064694;28;20077;-79
2023/01/15 09:29:58;;;;;;;4.60;0.20;;;6.10;99.90;;;;;;5078620;28;20028;-78
2023/01/15 09:32:24;;;;;;;4.78;0.20;;;6.10;99.90;;;;;;5079653;28;20137;-79
2023/01/15 09:34:50;;;;;;;6.97;0.60;;;6.10;99.90;;;;;;5073913;28;20563;-79
2023/01/15 09:37:15;;;;;;;5.05;0.68;;;6.10;99.90;;;;;;5062985;28;20057;-78
2023/01/15 09:39:41;;;;;;;4.40;0.30;;;6.10;99.90;;;;;;5075138;28;20032;-78
2023/01/15 09:42:30;;;;;;;5.65;0.20;;;6.00;99.90;;;;;;5065542;28;20126;-78
2023/01/15 09:45:20;;;;;;;4.32;0.20;;;6.10;99.90;;;;;;5092093;28;20115;-78
2023/01/15 09:48:16;;;;;;;3.63;0.63;;;6.20;99.90;;;;;;5079231;28;20488;-79
2023/01/15 09:50:51;;;;;;;7.32;0.20;;;6.30;99.90;;;;;;5067729;28;20497;-79
2023/01/15 09:53:34;;;;;;;8.20;0.38;;;6.30;99.90;;;;;;5077032;28;20044;-78
2023/01/15 09:56:01;;;;;;;5.78;0.30;;;6.20;99.90;;;;;;5063457;28;20477;-79
2023/01/15 09:58:37;;;;;;;6.53;0.30;;;6.20;99.90;;;;;;5082547;28;20062;-78
2023/01/15 10:01:03;;;;;;;4.63;0.20;;;6.40;99.90;;;;;;5097813;28;20111;-78
2023/01/15 10:03:35;;;;;;;7.60;0.50;;;6.50;99.90;;;;;;5085414;28;20036;-80
2023/01/15 10:06:12;;;;;;;3.63;0.20;;;6.50;99.90;;;;;;5083934;28;20035;-78
2023/01/15 10:08:45;;;;;;;3.65;0.20;;;6.60;99.90;;;;;;5079104;28;20052;-80
2023/01/15 10:11:14;;;;;;;3.97;0.40;;;6.70;99.90;;;;;;5087083;28;20032;-80
2023/01/15 10:13:51;;;;;;;8.80;0.43;;;6.80;99.90;;;;;;5071114;28;20032;-80
2023/01/15 10:16:30;;;;;;;9.02;0.30;;;6.90;99.90;;;;;;5078848;28;20040;-79
2023/01/15 10:18:57;;;;;;;7.47;0.50;;;6.90;99.90;;;;;;5066041;28;20384;-79
2023/01/15 10:21:46;;;;;;;4.03;0.20;;;6.90;99.90;;;;;;5069089;28;20068;-78
2023/01/15 10:24:30;;;;;;;8.73;0.47;;;6.90;99.90;;;;;;5080844;28;20389;-79
2023/01/15 10:26:57;;;;;;;2.65;0.35;;;6.90;99.90;;;;;;5077483;28;20405;-80
2023/01/15 10:29:48;;;;;;;6.18;0.35;;;6.90;99.90;;;;;;5075953;28;20447;-79
2023/01/15 10:32:35;;;;;;;4.68;0.20;;;6.90;99.90;;;;;;5082814;28;20552;-79
2023/01/15 10:35:19;;;;;;;6.05;0.50;;;6.90;99.90;;;;;;5077574;28;20040;-81
2023/01/15 10:38:14;;;;;;;7.78;0.30;;;6.90;99.90;;;;;;5079912;28;20024;-79
2023/01/15 10:40:52;;;;;;;5.50;0.30;;;6.90;99.90;;;;;;5077335;28;20123;-79
2023/01/15 10:43:23;;;;;;;6.65;0.30;;;7.10;99.90;;;;;;5077618;28;20058;-79
2023/01/15 10:45:57;;;;;;;6.82;0.20;;;7.10;99.90;;;;;;5093919;28;20040;-78
2023/01/15 10:48:40;;;;;;;6.47;0.43;;;7.10;99.90;;;;;;5078254;28;20096;-79
2023/01/15 10:51:16;;;;;;;6.35;0.40;;;7.20;99.90;;;;;;5076265;28;20476;-80
2023/01/15 10:53:50;;;;;;;5.28;0.35;;;7.10;99.90;;;;;;5075898;28;20025;-79
2023/01/15 10:56:39;;;;;;;2.58;0.20;;;7.10;99.90;;;;;;5075179;28;20056;-79
2023/01/15 10:59:17;;;;;;;7.40;1.05;;;7.00;99.90;;;;;;5075503;28;20177;-79
2023/01/15 11:01:43;;;;;;;4.15;0.40;;;7.10;99.90;;;;;;5080477;28;20016;-79
2023/01/15 11:04:13;;;;;;;8.15;0.30;;;7.20;99.90;;;;;;5081640;28;20430;-80
2023/01/15 11:06:40;;;;;;;6.80;0.30;;;7.40;99.90;;;;;;5083414;28;20094;-79
2023/01/15 11:09:06;;;;;;;6.10;0.63;;;7.30;99.90;;;;;;5080413;28;20075;-78
2023/01/15 11:20:00;;;;;;;11.05;0.47;;;7.30;99.90;;;;;;5095969;28;20039;-79
2023/01/15 11:22:28;;;;;;;8.18;0.40;;;7.30;99.90;;;;;;5088728;28;20051;-80
2023/01/15 11:24:57;;;;;;;4.75;0.50;;;7.50;99.90;;;;;;5080377;28;20499;-80
2023/01/15 11:27:27;;;;;;;8.30;0.40;;;7.50;99.90;;;;;;5080283;28;20107;-79
2023/01/15 11:29:56;;;;;;;3.17;0.60;;;7.30;99.90;;;;;;5074588;28;20028;-79
2023/01/15 11:32:36;;;;;;;4.78;0.40;;;7.20;99.90;;;;;;5085418;28;20037;-79
2023/01/15 11:35:17;;;;;;;3.45;0.20;;;7.10;99.90;;;;;;5078436;28;20029;-78
2023/01/15 11:37:43;;;;;;;5.38;0.82;;;7.10;99.90;;;;;;5078136;28;20036;-79
2023/01/15 11:40:22;;;;;;;6.35;0.28;;;7.00;99.90;;;;;;5078372;28;20040;-80
2023/01/15 11:51:16;;;;;;;5.15;0.55;;;7.50;99.90;;;;;;5070569;28;20664;-79
2023/01/15 11:53:54;;;;;;;4.80;0.20;;;7.60;99.90;;;;;;5056490;28;20016;-80
2023/01/15 11:56:23;;;;;;;5.05;0.30;;;7.70;99.90;;;;;;5059518;28;20041;-79
2023/01/15 11:58:59;;;;;;;7.60;0.30;;;7.60;99.90;;;;;;5055843;28;20098;-79
2023/01/15 12:01:47;;;;;;;3.60;0.20;;;7.40;99.90;;;;;;5042257;28;20051;-79
2023/01/15 12:04:52;;;;;;;2.38;0.30;;;7.40;99.90;;;;;;5041995;28;20378;-80
2023/01/15 12:07:18;;;;;;;4.13;0.35;;;7.40;99.90;;;;;;5049745;28;20036;-79
2023/01/15 12:09:56;;;;;;;2.20;0.20;;;7.50;99.90;;;;;;5048495;28;20498;-79
2023/01/15 12:12:42;;;;;;;3.65;0.25;;;7.50;99.90;;;;;;5053622;28;20078;-79
2023/01/15 12:15:22;;;;;;;4.47;0.40;;;7.50;99.90;;;;;;5046554;28;20037;-79
2023/01/15 12:17:54;;;;;;;6.32;0.30;;;7.50;99.90;;;;;;5056096;28;20035;-80
2023/01/15 12:20:24;;;;;;;4.60;0.50;;;7.40;99.90;;;;;;5056150;28;20048;-80
2023/01/15 12:23:08;;;;;;;3.28;0.40;;;7.50;99.90;;;;;;5059795;28;20158;-80
2023/01/15 12:25:57;;;;;;;4.32;0.20;;;7.70;99.90;;;;;;5059979;28;20123;-79
2023/01/15 12:28:28;;;;;;;4.70;0.28;;;7.60;99.90;;;;;;5070832;28;20029;-79
2023/01/15 12:31:14;;;;;;;3.35;0.20;;;7.60;99.90;;;;;;5058230;28;20326;-79
2023/01/15 12:34:10;;;;;;;1.88;0.20;;;7.70;99.90;;;;;;5056650;28;20090;-78
2023/01/15 12:36:57;;;;;;;5.07;0.20;;;7.60;99.90;;;;;;5068530;28;20492;-78
2023/01/15 12:39:42;;;;;;;3.00;0.65;;;7.70;99.90;;;;;;5037273;28;20090;-78
2023/01/15 12:45:11;;;;;;;4.13;0.30;;;7.60;99.90;;;;;;5024491;28;20170;-78
2023/01/15 12:47:48;;;;;;;;;;;7.70;99.90;;;;;;5017152;28;20125;-80
2023/01/15 12:50:33;;;;;;;4.63;0.20;;;7.60;99.90;;;;;;5029163;28;19960;-79
2023/01/15 12:53:05;;;;;;;2.08;0.10;;;7.80;99.90;;;;;;5029527;28;20036;-80
2023/01/15 12:55:37;;;;;;;1.20;0.10;;;7.80;99.90;;;;;;5051306;28;20033;-77
2023/01/15 12:58:28;;;;;;;1.10;0.10;;;7.80;99.90;;;;;;5051645;28;20032;-79
2023/01/15 13:01:06;;;;;;;1.77;0.10;;;7.90;99.90;;;;;;5040755;28;20469;-79
2023/01/15 13:03:58;;;;;;;2.45;0.22;;;8.00;99.90;;;;;;5028228;28;20110;-80
2023/01/15 13:06:27;;;;;;;4.03;0.25;;;7.60;99.90;;;;;;5029533;28;20041;-79
2023/01/15 13:09:34;;;;;;;3.35;0.20;;;7.50;99.90;;;;;;5052049;28;20378;-80
2023/01/15 13:11:59;;;;;;;4.10;0.30;;;7.30;99.90;;;;;;5033902;28;20455;-79
2023/01/15 13:14:25;;;;;;;3.28;0.30;;;7.40;99.90;;;;;;5036001;28;20029;-79
2023/01/15 13:17:01;;;;;;;1.52;0.10;;;7.50;99.90;;;;;;5050928;28;20130;-80
2023/01/15 13:19:45;;;;;;;1.48;0.10;;;7.50;99.90;;;;;;5052614;28;20048;-79
2023/01/15 13:22:16;;;;;;;3.58;0.20;;;7.60;99.90;;;;;;5053209;28;20500;-79
2023/01/15 13:24:52;;;;;;;1.60;0.15;;;7.60;99.90;;;;;;5054756;28;20028;-79
2023/01/15 13:27:17;;;;;;;6.38;0.28;;;7.50;99.90;;;;;;5056321;28;20032;-80
2023/01/15 13:30:05;;;;;;;2.45;0.30;;;7.40;99.90;;;;;;5055948;28;20497;-79
2023/01/15 13:32:42;;;;;;;3.63;0.30;;;7.40;99.90;;;;;;5055036;28;20067;-81
2023/01/15 13:35:31;;;;;;;3.90;0.20;;;7.30;99.90;;;;;;5033775;28;20551;-81
2023/01/15 13:38:03;;;;;;;4.60;0.30;;;7.10;99.90;;;;;;5039276;28;20040;-79
2023/01/15 13:40:39;;;;;;;3.03;0.30;;;7.20;99.90;;;;;;5055394;28;20901;-80
2023/01/15 13:43:08;;;;;;;3.88;0.30;;;7.30;99.90;;;;;;5031898;28;20076;-82
2023/01/15 13:45:35;;;;;;;3.33;0.22;;;7.30;99.90;;;;;;5038072;28;20029;-78
2023/01/15 13:48:43;;;;;;;2.88;0.40;;;7.30;99.90;;;;;;5048242;28;20128;-78
2023/01/15 13:51:28;;;;;;;2.13;0.20;;;7.30;99.90;;;;;;5062636;28;20452;-78
2023/01/15 13:53:55;;;;;;;5.07;0.20;;;7.20;99.90;;;;;;5066805;28;20425;-79
2023/01/15 13:56:32;;;;;;;2.60;0.22;;;6.80;99.90;;;;;;5034969;28;20076;-78
2023/01/15 13:59:04;;;;;;;1.65;0.20;;;6.80;99.90;;;;;;5047281;28;20087;-79
2023/01/15 14:01:29;;;;;;;3.38;0.20;;;6.80;99.90;;;;;;5045502;28;20033;-81
2023/01/15 14:04:08;;;;;;;2.70;0.20;;;6.80;99.90;;;;;;5070512;28;20048;-80
2023/01/15 14:06:48;;;;;;;6.60;0.20;;;6.80;99.90;;;;;;5070531;28;20081;-79
2023/01/15 14:09:33;;;;;;;2.40;0.30;;;6.70;99.90;;;;;;5046678;28;20033;-78
2023/01/15 14:12:12;;;;;;;3.45;0.20;;;6.60;99.90;;;;;;5051141;28;20038;-78